sensor_id;sensor_type;location;lat;lon;timestamp;P1;durP1;ratioP1;P2;durP2;ratioP2
1613;SDS011;800;48.824;9.346;2024-02-23T00:02:16;0.60;;;0.50;;
1613;SDS011;800;48.824;9.346;2024-02-23T00:04:42;2.47;;;0.70;;
1613;SDS011;800;48.824;9.346;2024-02-23T00:07:08;0.60;;;0.60;;
1613;SDS011;800;48.824;9.346;2024-02-23T00:09:33;0.50;;;0.50;;
1613;SDS011;800;48.824;9.346;2024-02-23T00:11:59;1.10;;;0.60;;
1613;SDS011;800;48.824;9.346;2024-02-23T00:14:24;1.77;;;0.70;;
1613;SDS011;800;48.824;9.346;2024-02-23T00:16:50;1.57;;;0.60;;
1613;SDS011;800;48.824;9.346;2024-02-23T00:19:16;0.60;;;0.60;;
1613;SDS011;800;48.824;9.346;2024-02-23T00:21:43;2.03;;;0.60;;
1613;SDS011;800;48.824;9.346;2024-02-23T00:24:12;2.30;;;0.73;;
1613;SDS011;800;48.824;9.346;2024-02-23T00:26:38;0.50;;;0.50;;
1613;SDS011;800;48.824;9.346;2024-02-23T00:29:04;1.57;;;0.70;;
1613;SDS011;800;48.824;9.346;2024-02-23T00:31:29;0.60;;;0.60;;
1613;SDS011;800;48.824;9.346;2024-02-23T00:33:55;0.70;;;0.60;;
1613;SDS011;800;48.824;9.346;2024-02-23T00:36:20;0.70;;;0.60;;
1613;SDS011;800;48.824;9.346;2024-02-23T00:38:46;1.33;;;0.70;;
1613;SDS011;800;48.824;9.346;2024-02-23T00:41:12;0.60;;;0.60;;
1613;SDS011;800;48.824;9.346;2024-02-23T00:43:40;0.90;;;0.70;;
1613;SDS011;800;48.824;9.346;2024-02-23T00:46:06;1.90;;;0.60;;
1613;SDS011;800;48.824;9.346;2024-02-23T00:48:32;0.97;;;0.60;;
1613;SDS011;800;48.824;9.346;2024-02-23T00:50:58;0.80;;;0.60;;
1613;SDS011;800;48.824;9.346;2024-02-23T00:53:23;2.30;;;0.70;;
1613;SDS011;800;48.824;9.346;2024-02-23T00:55:49;2.83;;;1.20;;
1613;SDS011;800;48.824;9.346;2024-02-23T00:58:15;0.60;;;0.60;;
1613;SDS011;800;48.824;9.346;2024-02-23T01:00:41;2.60;;;0.60;;
1613;SDS011;800;48.824;9.346;2024-02-23T01:03:06;0.60;;;0.60;;
1613;SDS011;800;48.824;9.346;2024-02-23T01:05:32;3.27;;;0.67;;
1613;SDS011;800;48.824;9.346;2024-02-23T01:07:58;1.00;;;0.60;;
1613;SDS011;800;48.824;9.346;2024-02-23T01:10:23;1.23;;;0.70;;
1613;SDS011;800;48.824;9.346;2024-02-23T01:12:49;0.80;;;0.80;;
1613;SDS011;800;48.824;9.346;2024-02-23T01:15:14;2.73;;;0.50;;
1613;SDS011;800;48.824;9.346;2024-02-23T01:17:40;1.57;;;1.47;;
1613;SDS011;800;48.824;9.346;2024-02-23T01:20:06;1.27;;;0.50;;
1613;SDS011;800;48.824;9.346;2024-02-23T01:22:32;5.23;;;0.60;;
1613;SDS011;800;48.824;9.346;2024-02-23T01:24:57;2.20;;;0.50;;
1613;SDS011;800;48.824;9.346;2024-02-23T01:27:23;1.00;;;0.63;;
1613;SDS011;800;48.824;9.346;2024-02-23T01:29:48;1.10;;;0.60;;
1613;SDS011;800;48.824;9.346;2024-02-23T01:32:14;1.23;;;0.50;;
1613;SDS011;800;48.824;9.346;2024-02-23T01:34:39;1.33;;;0.60;;
1613;SDS011;800;48.824;9.346;2024-02-23T01:37:05;1.80;;;0.70;;
1613;SDS011;800;48.824;9.346;2024-02-23T01:39:30;0.90;;;0.80;;
1613;SDS011;800;48.824;9.346;2024-02-23T01:41:56;0.97;;;0.67;;
1613;SDS011;800;48.824;9.346;2024-02-23T01:44:22;2.40;;;1.00;;
1613;SDS011;800;48.824;9.346;2024-02-23T01:46:47;2.00;;;0.63;;
1613;SDS011;800;48.824;9.346;2024-02-23T01:49:14;0.70;;;0.50;;
1613;SDS011;800;48.824;9.346;2024-02-23T01:51:39;1.43;;;0.50;;
1613;SDS011;800;48.824;9.346;2024-02-23T01:54:05;2.20;;;0.77;;
1613;SDS011;800;48.824;9.346;2024-02-23T01:56:32;1.43;;;0.60;;
1613;SDS011;800;48.824;9.346;2024-02-23T01:58:59;3.43;;;1.40;;
1613;SDS011;800;48.824;9.346;2024-02-23T02:01:25;1.47;;;0.70;;
1613;SDS011;800;48.824;9.346;2024-02-23T02:03:51;0.97;;;0.50;;
1613;SDS011;800;48.824;9.346;2024-02-23T02:06:16;1.27;;;0.60;;
1613;SDS011;800;48.824;9.346;2024-02-23T02:08:42;1.47;;;0.60;;
1613;SDS011;800;48.824;9.346;2024-02-23T02:11:08;3.07;;;0.70;;
1613;SDS011;800;48.824;9.346;2024-02-23T02:13:34;4.77;;;1.20;;
1613;SDS011;800;48.824;9.346;2024-02-23T02:16:00;1.03;;;0.70;;
1613;SDS011;800;48.824;9.346;2024-02-23T02:18:27;2.00;;;0.70;;
1613;SDS011;800;48.824;9.346;2024-02-23T02:20:56;1.37;;;0.60;;
1613;SDS011;800;48.824;9.346;2024-02-23T02:23:22;0.70;;;0.60;;
1613;SDS011;800;48.824;9.346;2024-02-23T02:25:54;0.70;;;0.70;;
1613;SDS011;800;48.824;9.346;2024-02-23T02:28:20;1.00;;;0.80;;
1613;SDS011;800;48.824;9.346;2024-02-23T02:30:47;1.13;;;0.57;;
1613;SDS011;800;48.824;9.346;2024-02-23T02:33:13;1.40;;;0.70;;
1613;SDS011;800;48.824;9.346;2024-02-23T02:35:38;1.93;;;0.70;;
1613;SDS011;800;48.824;9.346;2024-02-23T02:38:04;1.27;;;0.50;;
1613;SDS011;800;48.824;9.346;2024-02-23T02:40:30;1.00;;;0.50;;
1613;SDS011;800;48.824;9.346;2024-02-23T02:42:56;0.63;;;0.50;;
1613;SDS011;800;48.824;9.346;2024-02-23T02:45:22;0.87;;;0.50;;
1613;SDS011;800;48.824;9.346;2024-02-23T02:47:48;0.90;;;0.57;;
1613;SDS011;800;48.824;9.346;2024-02-23T02:50:13;0.60;;;0.60;;
1613;SDS011;800;48.824;9.346;2024-02-23T02:52:39;0.87;;;0.60;;
1613;SDS011;800;48.824;9.346;2024-02-23T02:55:05;0.70;;;0.60;;
1613;SDS011;800;48.824;9.346;2024-02-23T02:57:30;1.33;;;0.70;;
1613;SDS011;800;48.824;9.346;2024-02-23T02:59:56;1.00;;;0.60;;
1613;SDS011;800;48.824;9.346;2024-02-23T03:02:22;2.93;;;1.20;;
1613;SDS011;800;48.824;9.346;2024-02-23T03:04:48;0.80;;;0.80;;
1613;SDS011;800;48.824;9.346;2024-02-23T03:07:14;1.90;;;0.57;;
1613;SDS011;800;48.824;9.346;2024-02-23T03:09:40;1.50;;;0.73;;
1613;SDS011;800;48.824;9.346;2024-02-23T03:12:05;2.60;;;0.80;;
1613;SDS011;800;48.824;9.346;2024-02-23T03:14:31;0.83;;;0.80;;
1613;SDS011;800;48.824;9.346;2024-02-23T03:16:58;1.20;;;0.70;;
1613;SDS011;800;48.824;9.346;2024-02-23T03:19:24;3.73;;;0.70;;
1613;SDS011;800;48.824;9.346;2024-02-23T03:21:50;1.20;;;0.70;;
1613;SDS011;800;48.824;9.346;2024-02-23T03:24:16;1.13;;;0.80;;
1613;SDS011;800;48.824;9.346;2024-02-23T03:26:42;0.80;;;0.80;;
1613;SDS011;800;48.824;9.346;2024-02-23T03:29:08;2.63;;;0.60;;
1613;SDS011;800;48.824;9.346;2024-02-23T03:31:34;1.93;;;0.80;;
1613;SDS011;800;48.824;9.346;2024-02-23T03:34:00;1.43;;;0.80;;
1613;SDS011;800;48.824;9.346;2024-02-23T03:36:25;1.23;;;0.70;;
1613;SDS011;800;48.824;9.346;2024-02-23T03:38:51;1.07;;;0.60;;
1613;SDS011;800;48.824;9.346;2024-02-23T03:41:17;2.90;;;1.00;;
1613;SDS011;800;48.824;9.346;2024-02-23T03:43:43;1.73;;;0.80;;
1613;SDS011;800;48.824;9.346;2024-02-23T03:46:08;1.10;;;1.00;;
1613;SDS011;800;48.824;9.346;2024-02-23T03:48:34;1.43;;;0.80;;
1613;SDS011;800;48.824;9.346;2024-02-23T03:51:01;2.10;;;1.20;;
1613;SDS011;800;48.824;9.346;2024-02-23T03:53:28;5.00;;;1.30;;
1613;SDS011;800;48.824;9.346;2024-02-23T03:55:54;4.50;;;1.40;;
1613;SDS011;800;48.824;9.346;2024-02-23T03:58:19;2.50;;;1.50;;
1613;SDS011;800;48.824;9.346;2024-02-23T04:00:45;3.93;;;1.73;;
1613;SDS011;800;48.824;9.346;2024-02-23T04:03:10;2.70;;;1.63;;
1613;SDS011;800;48.824;9.346;2024-02-23T04:05:36;5.80;;;1.20;;
1613;SDS011;800;48.824;9.346;2024-02-23T04:08:02;2.10;;;0.80;;
1613;SDS011;800;48.824;9.346;2024-02-23T04:10:28;2.70;;;1.73;;
1613;SDS011;800;48.824;9.346;2024-02-23T04:12:53;1.60;;;1.00;;
1613;SDS011;800;48.824;9.346;2024-02-23T04:15:19;2.20;;;0.90;;
1613;SDS011;800;48.824;9.346;2024-02-23T04:17:45;3.07;;;0.93;;
1613;SDS011;800;48.824;9.346;2024-02-23T04:20:11;4.03;;;0.80;;
1613;SDS011;800;48.824;9.346;2024-02-23T04:22:37;2.37;;;1.00;;
1613;SDS011;800;48.824;9.346;2024-02-23T04:25:03;3.90;;;1.03;;
1613;SDS011;800;48.824;9.346;2024-02-23T04:27:30;1.20;;;0.90;;
1613;SDS011;800;48.824;9.346;2024-02-23T04:29:55;4.57;;;1.47;;
1613;SDS011;800;48.824;9.346;2024-02-23T04:32:21;1.00;;;0.70;;
1613;SDS011;800;48.824;9.346;2024-02-23T04:34:46;1.37;;;0.80;;
1613;SDS011;800;48.824;9.346;2024-02-23T04:37:12;3.13;;;0.90;;
1613;SDS011;800;48.824;9.346;2024-02-23T04:39:37;1.93;;;0.90;;
1613;SDS011;800;48.824;9.346;2024-02-23T04:42:06;2.00;;;0.70;;
1613;SDS011;800;48.824;9.346;2024-02-23T04:44:33;1.30;;;0.83;;
1613;SDS011;800;48.824;9.346;2024-02-23T04:46:59;0.80;;;0.80;;
1613;SDS011;800;48.824;9.346;2024-02-23T04:49:25;1.17;;;0.87;;
1613;SDS011;800;48.824;9.346;2024-02-23T04:51:50;1.20;;;0.87;;
1613;SDS011;800;48.824;9.346;2024-02-23T04:54:16;3.37;;;1.57;;
1613;SDS011;800;48.824;9.346;2024-02-23T04:56:42;6.00;;;1.50;;
1613;SDS011;800;48.824;9.346;2024-02-23T04:59:07;4.57;;;1.20;;
1613;SDS011;800;48.824;9.346;2024-02-23T05:01:36;2.13;;;1.10;;
1613;SDS011;800;48.824;9.346;2024-02-23T05:04:02;2.00;;;0.93;;
1613;SDS011;800;48.824;9.346;2024-02-23T05:06:29;3.27;;;1.50;;
1613;SDS011;800;48.824;9.346;2024-02-23T05:08:55;3.90;;;2.40;;
1613;SDS011;800;48.824;9.346;2024-02-23T05:11:20;2.97;;;1.60;;
1613;SDS011;800;48.824;9.346;2024-02-23T05:13:46;5.33;;;1.50;;
1613;SDS011;800;48.824;9.346;2024-02-23T05:16:13;2.20;;;0.90;;
1613;SDS011;800;48.824;9.346;2024-02-23T05:18:39;0.80;;;0.77;;
1613;SDS011;800;48.824;9.346;2024-02-23T05:21:07;2.90;;;1.20;;
1613;SDS011;800;48.824;9.346;2024-02-23T05:23:33;2.43;;;1.00;;
1613;SDS011;800;48.824;9.346;2024-02-23T05:25:58;2.30;;;0.93;;
1613;SDS011;800;48.824;9.346;2024-02-23T05:28:24;2.47;;;0.80;;
1613;SDS011;800;48.824;9.346;2024-02-23T05:30:50;4.87;;;1.20;;
1613;SDS011;800;48.824;9.346;2024-02-23T05:33:16;2.20;;;0.90;;
1613;SDS011;800;48.824;9.346;2024-02-23T05:35:45;3.43;;;1.00;;
1613;SDS011;800;48.824;9.346;2024-02-23T05:38:13;1.43;;;1.10;;
1613;SDS011;800;48.824;9.346;2024-02-23T05:40:42;1.47;;;0.90;;
1613;SDS011;800;48.824;9.346;2024-02-23T05:43:08;1.63;;;0.90;;
1613;SDS011;800;48.824;9.346;2024-02-23T05:45:33;1.90;;;1.00;;
1613;SDS011;800;48.824;9.346;2024-02-23T05:47:59;2.70;;;1.00;;
1613;SDS011;800;48.824;9.346;2024-02-23T05:50:25;2.17;;;1.97;;
1613;SDS011;800;48.824;9.346;2024-02-23T05:52:50;1.07;;;0.80;;
1613;SDS011;800;48.824;9.346;2024-02-23T05:55:18;3.33;;;1.07;;
1613;SDS011;800;48.824;9.346;2024-02-23T05:57:44;0.90;;;0.70;;
1613;SDS011;800;48.824;9.346;2024-02-23T06:00:09;0.80;;;0.80;;
1613;SDS011;800;48.824;9.346;2024-02-23T06:02:35;2.80;;;1.00;;
1613;SDS011;800;48.824;9.346;2024-02-23T06:05:02;1.50;;;0.80;;
1613;SDS011;800;48.824;9.346;2024-02-23T06:07:28;1.67;;;0.73;;
1613;SDS011;800;48.824;9.346;2024-02-23T06:09:57;0.90;;;0.90;;
1613;SDS011;800;48.824;9.346;2024-02-23T06:12:23;4.40;;;0.90;;
1613;SDS011;800;48.824;9.346;2024-02-23T06:14:50;1.50;;;0.90;;
1613;SDS011;800;48.824;9.346;2024-02-23T06:17:16;1.83;;;1.00;;
1613;SDS011;800;48.824;9.346;2024-02-23T06:19:42;3.20;;;1.10;;
1613;SDS011;800;48.824;9.346;2024-02-23T06:22:07;1.17;;;1.00;;
1613;SDS011;800;48.824;9.346;2024-02-23T06:24:35;2.30;;;1.07;;
1613;SDS011;800;48.824;9.346;2024-02-23T06:27:00;3.77;;;1.30;;
1613;SDS011;800;48.824;9.346;2024-02-23T06:29:28;4.07;;;1.83;;
1613;SDS011;800;48.824;9.346;2024-02-23T06:31:54;2.13;;;1.80;;
1613;SDS011;800;48.824;9.346;2024-02-23T06:34:19;2.33;;;1.30;;
1613;SDS011;800;48.824;9.346;2024-02-23T06:36:45;1.63;;;1.40;;
1613;SDS011;800;48.824;9.346;2024-02-23T06:39:10;2.27;;;1.40;;
1613;SDS011;800;48.824;9.346;2024-02-23T06:41:37;2.20;;;1.60;;
1613;SDS011;800;48.824;9.346;2024-02-23T06:44:05;3.40;;;1.83;;
1613;SDS011;800;48.824;9.346;2024-02-23T06:46:31;4.33;;;1.40;;
1613;SDS011;800;48.824;9.346;2024-02-23T06:48:56;3.97;;;1.60;;
1613;SDS011;800;48.824;9.346;2024-02-23T06:51:22;4.43;;;1.97;;
1613;SDS011;800;48.824;9.346;2024-02-23T06:53:47;5.20;;;1.40;;
1613;SDS011;800;48.824;9.346;2024-02-23T06:56:13;4.03;;;1.30;;
1613;SDS011;800;48.824;9.346;2024-02-23T06:58:40;3.00;;;1.37;;
1613;SDS011;800;48.824;9.346;2024-02-23T07:01:05;2.57;;;1.67;;
1613;SDS011;800;48.824;9.346;2024-02-23T07:03:31;3.33;;;1.53;;
1613;SDS011;800;48.824;9.346;2024-02-23T07:05:58;2.53;;;1.20;;
1613;SDS011;800;48.824;9.346;2024-02-23T07:08:23;2.57;;;1.60;;
1613;SDS011;800;48.824;9.346;2024-02-23T07:10:49;1.50;;;1.30;;
1613;SDS011;800;48.824;9.346;2024-02-23T07:13:15;3.77;;;1.70;;
1613;SDS011;800;48.824;9.346;2024-02-23T07:15:42;3.00;;;1.43;;
1613;SDS011;800;48.824;9.346;2024-02-23T07:18:07;1.70;;;1.60;;
1613;SDS011;800;48.824;9.346;2024-02-23T07:20:35;2.37;;;1.80;;
1613;SDS011;800;48.824;9.346;2024-02-23T07:23:01;3.10;;;1.63;;
1613;SDS011;800;48.824;9.346;2024-02-23T07:25:26;5.20;;;2.80;;
1613;SDS011;800;48.824;9.346;2024-02-23T07:27:52;5.83;;;2.60;;
1613;SDS011;800;48.824;9.346;2024-02-23T07:30:18;3.07;;;2.37;;
1613;SDS011;800;48.824;9.346;2024-02-23T07:32:43;2.57;;;1.60;;
1613;SDS011;800;48.824;9.346;2024-02-23T07:35:09;4.47;;;1.70;;
1613;SDS011;800;48.824;9.346;2024-02-23T07:37:38;4.73;;;1.63;;
1613;SDS011;800;48.824;9.346;2024-02-23T07:40:04;2.67;;;1.40;;
1613;SDS011;800;48.824;9.346;2024-02-23T07:42:31;1.70;;;1.30;;
1613;SDS011;800;48.824;9.346;2024-02-23T07:44:57;1.73;;;1.10;;
1613;SDS011;800;48.824;9.346;2024-02-23T07:47:23;2.10;;;1.37;;
1613;SDS011;800;48.824;9.346;2024-02-23T07:49:49;1.90;;;1.10;;
1613;SDS011;800;48.824;9.346;2024-02-23T07:52:16;2.40;;;1.50;;
1613;SDS011;800;48.824;9.346;2024-02-23T07:54:41;4.20;;;2.37;;
1613;SDS011;800;48.824;9.346;2024-02-23T07:57:07;3.30;;;1.93;;
1613;SDS011;800;48.824;9.346;2024-02-23T07:59:33;3.07;;;1.90;;
1613;SDS011;800;48.824;9.346;2024-02-23T08:01:58;2.23;;;1.73;;
1613;SDS011;800;48.824;9.346;2024-02-23T08:04:24;3.00;;;1.30;;
1613;SDS011;800;48.824;9.346;2024-02-23T08:06:50;2.80;;;1.77;;
1613;SDS011;800;48.824;9.346;2024-02-23T08:09:16;2.67;;;2.03;;
1613;SDS011;800;48.824;9.346;2024-02-23T08:11:42;2.00;;;1.50;;
1613;SDS011;800;48.824;9.346;2024-02-23T08:14:08;1.87;;;1.77;;
1613;SDS011;800;48.824;9.346;2024-02-23T08:16:34;1.33;;;1.23;;
1613;SDS011;800;48.824;9.346;2024-02-23T08:18:59;4.53;;;1.67;;
1613;SDS011;800;48.824;9.346;2024-02-23T08:21:25;3.53;;;1.60;;
1613;SDS011;800;48.824;9.346;2024-02-23T08:23:51;1.80;;;1.17;;
1613;SDS011;800;48.824;9.346;2024-02-23T08:26:17;2.67;;;2.10;;
1613;SDS011;800;48.824;9.346;2024-02-23T08:28:43;3.97;;;2.00;;
1613;SDS011;800;48.824;9.346;2024-02-23T08:31:08;1.97;;;1.33;;
1613;SDS011;800;48.824;9.346;2024-02-23T08:33:34;1.87;;;1.53;;
1613;SDS011;800;48.824;9.346;2024-02-23T08:36:00;2.30;;;1.73;;
1613;SDS011;800;48.824;9.346;2024-02-23T08:38:25;3.87;;;1.90;;
1613;SDS011;800;48.824;9.346;2024-02-23T08:40:51;3.60;;;2.40;;
1613;SDS011;800;48.824;9.346;2024-02-23T08:43:16;3.20;;;2.90;;
1613;SDS011;800;48.824;9.346;2024-02-23T08:45:42;3.07;;;2.07;;
1613;SDS011;800;48.824;9.346;2024-02-23T08:48:08;2.20;;;1.40;;
1613;SDS011;800;48.824;9.346;2024-02-23T08:50:33;2.90;;;1.30;;
1613;SDS011;800;48.824;9.346;2024-02-23T08:52:59;4.97;;;2.40;;
1613;SDS011;800;48.824;9.346;2024-02-23T08:55:25;2.10;;;1.90;;
1613;SDS011;800;48.824;9.346;2024-02-23T08:57:50;2.43;;;1.50;;
1613;SDS011;800;48.824;9.346;2024-02-23T09:00:16;3.43;;;1.37;;
1613;SDS011;800;48.824;9.346;2024-02-23T09:02:42;2.07;;;1.67;;
1613;SDS011;800;48.824;9.346;2024-02-23T09:05:08;5.20;;;1.30;;
1613;SDS011;800;48.824;9.346;2024-02-23T09:07:34;2.13;;;1.30;;
1613;SDS011;800;48.824;9.346;2024-02-23T09:09:59;3.57;;;1.33;;
1613;SDS011;800;48.824;9.346;2024-02-23T09:12:25;4.53;;;1.73;;
1613;SDS011;800;48.824;9.346;2024-02-23T09:14:51;1.90;;;0.93;;
1613;SDS011;800;48.824;9.346;2024-02-23T09:17:16;3.57;;;1.27;;
1613;SDS011;800;48.824;9.346;2024-02-23T09:19:44;1.10;;;1.00;;
1613;SDS011;800;48.824;9.346;2024-02-23T09:22:09;1.50;;;1.40;;
1613;SDS011;800;48.824;9.346;2024-02-23T09:24:38;4.20;;;1.40;;
1613;SDS011;800;48.824;9.346;2024-02-23T09:27:07;1.57;;;1.07;;
1613;SDS011;800;48.824;9.346;2024-02-23T09:29:33;2.90;;;1.10;;
1613;SDS011;800;48.824;9.346;2024-02-23T09:31:59;2.27;;;1.10;;
1613;SDS011;800;48.824;9.346;2024-02-23T09:34:25;1.70;;;1.40;;
1613;SDS011;800;48.824;9.346;2024-02-23T09:36:51;3.17;;;1.20;;
1613;SDS011;800;48.824;9.346;2024-02-23T09:39:16;1.87;;;1.10;;
1613;SDS011;800;48.824;9.346;2024-02-23T09:41:42;2.60;;;1.20;;
1613;SDS011;800;48.824;9.346;2024-02-23T09:44:08;1.50;;;1.10;;
1613;SDS011;800;48.824;9.346;2024-02-23T09:46:36;3.33;;;1.20;;
1613;SDS011;800;48.824;9.346;2024-02-23T09:49:02;4.00;;;1.27;;
1613;SDS011;800;48.824;9.346;2024-02-23T09:51:28;4.77;;;1.50;;
1613;SDS011;800;48.824;9.346;2024-02-23T09:53:55;2.87;;;0.90;;
1613;SDS011;800;48.824;9.346;2024-02-23T09:56:22;2.47;;;1.00;;
1613;SDS011;800;48.824;9.346;2024-02-23T09:58:52;1.73;;;1.00;;
1613;SDS011;800;48.824;9.346;2024-02-23T10:01:21;3.60;;;1.27;;
1613;SDS011;800;48.824;9.346;2024-02-23T10:03:52;2.47;;;1.17;;
1613;SDS011;800;48.824;9.346;2024-02-23T10:06:23;3.43;;;1.30;;
1613;SDS011;800;48.824;9.346;2024-02-23T10:08:49;2.40;;;0.90;;
1613;SDS011;800;48.824;9.346;2024-02-23T10:11:18;1.83;;;0.87;;
1613;SDS011;800;48.824;9.346;2024-02-23T10:13:44;3.27;;;1.07;;
1613;SDS011;800;48.824;9.346;2024-02-23T10:16:09;3.67;;;1.13;;
1613;SDS011;800;48.824;9.346;2024-02-23T10:18:37;2.50;;;1.20;;
1613;SDS011;800;48.824;9.346;2024-02-23T10:21:04;5.73;;;1.20;;
1613;SDS011;800;48.824;9.346;2024-02-23T10:23:30;4.53;;;1.27;;
1613;SDS011;800;48.824;9.346;2024-02-23T10:25:55;3.20;;;1.80;;
1613;SDS011;800;48.824;9.346;2024-02-23T10:28:21;3.70;;;1.93;;
1613;SDS011;800;48.824;9.346;2024-02-23T10:30:47;3.63;;;1.63;;
1613;SDS011;800;48.824;9.346;2024-02-23T10:33:13;2.97;;;1.10;;
1613;SDS011;800;48.824;9.346;2024-02-23T10:35:39;2.90;;;0.97;;
1613;SDS011;800;48.824;9.346;2024-02-23T10:38:08;2.20;;;0.93;;
1613;SDS011;800;48.824;9.346;2024-02-23T10:40:38;2.50;;;0.90;;
1613;SDS011;800;48.824;9.346;2024-02-23T10:43:06;1.33;;;0.90;;
1613;SDS011;800;48.824;9.346;2024-02-23T10:45:38;3.93;;;1.37;;
1613;SDS011;800;48.824;9.346;2024-02-23T10:48:05;3.00;;;1.30;;
1613;SDS011;800;48.824;9.346;2024-02-23T10:50:33;4.17;;;0.97;;
1613;SDS011;800;48.824;9.346;2024-02-23T10:53:00;3.37;;;1.30;;
1613;SDS011;800;48.824;9.346;2024-02-23T10:55:26;1.10;;;0.90;;
1613;SDS011;800;48.824;9.346;2024-02-23T10:57:53;2.40;;;1.27;;
1613;SDS011;800;48.824;9.346;2024-02-23T11:00:21;2.97;;;0.90;;
1613;SDS011;800;48.824;9.346;2024-02-23T11:02:50;2.80;;;0.90;;
1613;SDS011;800;48.824;9.346;2024-02-23T11:05:17;3.53;;;1.20;;
1613;SDS011;800;48.824;9.346;2024-02-23T11:07:46;2.47;;;1.10;;
1613;SDS011;800;48.824;9.346;2024-02-23T11:10:16;2.83;;;1.00;;
1613;SDS011;800;48.824;9.346;2024-02-23T11:12:42;8.77;;;1.70;;
1613;SDS011;800;48.824;9.346;2024-02-23T11:15:09;15.63;;;7.70;;
1613;SDS011;800;48.824;9.346;2024-02-23T11:17:35;13.50;;;6.40;;
1613;SDS011;800;48.824;9.346;2024-02-23T11:20:04;13.80;;;7.60;;
1613;SDS011;800;48.824;9.346;2024-02-23T11:22:32;3.77;;;2.37;;
1613;SDS011;800;48.824;9.346;2024-02-23T11:25:04;4.13;;;2.00;;
1613;SDS011;800;48.824;9.346;2024-02-23T11:27:33;4.27;;;1.40;;
1613;SDS011;800;48.824;9.346;2024-02-23T11:32:40;6.80;;;1.33;;
1613;SDS011;800;48.824;9.346;2024-02-23T11:35:11;3.30;;;1.70;;
1613;SDS011;800;48.824;9.346;2024-02-23T11:37:48;6.43;;;1.27;;
1613;SDS011;800;48.824;9.346;2024-02-23T11:40:24;4.30;;;1.53;;
1613;SDS011;800;48.824;9.346;2024-02-23T11:42:55;4.30;;;1.10;;
1613;SDS011;800;48.824;9.346;2024-02-23T11:45:20;4.43;;;1.20;;
1613;SDS011;800;48.824;9.346;2024-02-23T11:47:47;2.27;;;1.10;;
1613;SDS011;800;48.824;9.346;2024-02-23T11:50:12;3.50;;;1.17;;
1613;SDS011;800;48.824;9.346;2024-02-23T11:52:40;3.37;;;1.33;;
1613;SDS011;800;48.824;9.346;2024-02-23T11:55:06;2.00;;;1.07;;
1613;SDS011;800;48.824;9.346;2024-02-23T11:57:33;2.93;;;1.40;;
1613;SDS011;800;48.824;9.346;2024-02-23T12:00:01;2.70;;;1.27;;
1613;SDS011;800;48.824;9.346;2024-02-23T12:02:28;2.20;;;1.40;;
1613;SDS011;800;48.824;9.346;2024-02-23T12:04:53;3.17;;;1.20;;
1613;SDS011;800;48.824;9.346;2024-02-23T12:07:19;3.40;;;1.20;;
1613;SDS011;800;48.824;9.346;2024-02-23T12:09:46;6.03;;;1.10;;
1613;SDS011;800;48.824;9.346;2024-02-23T12:12:12;3.00;;;1.40;;
1613;SDS011;800;48.824;9.346;2024-02-23T12:14:39;1.17;;;0.93;;
1613;SDS011;800;48.824;9.346;2024-02-23T12:17:05;1.87;;;1.37;;
1613;SDS011;800;48.824;9.346;2024-02-23T12:19:37;2.30;;;0.93;;
1613;SDS011;800;48.824;9.346;2024-02-23T12:22:05;2.30;;;1.13;;
1613;SDS011;800;48.824;9.346;2024-02-23T12:24:31;2.13;;;1.37;;
1613;SDS011;800;48.824;9.346;2024-02-23T12:26:57;1.60;;;1.00;;
1613;SDS011;800;48.824;9.346;2024-02-23T12:29:23;3.93;;;1.20;;
1613;SDS011;800;48.824;9.346;2024-02-23T12:31:49;3.70;;;1.33;;
1613;SDS011;800;48.824;9.346;2024-02-23T12:34:14;2.63;;;1.10;;
1613;SDS011;800;48.824;9.346;2024-02-23T12:36:40;3.67;;;1.23;;
1613;SDS011;800;48.824;9.346;2024-02-23T12:39:06;3.40;;;1.50;;
1613;SDS011;800;48.824;9.346;2024-02-23T12:41:31;2.50;;;0.90;;
1613;SDS011;800;48.824;9.346;2024-02-23T12:43:57;2.60;;;1.00;;
1613;SDS011;800;48.824;9.346;2024-02-23T12:46:23;1.70;;;1.30;;
1613;SDS011;800;48.824;9.346;2024-02-23T12:48:49;2.20;;;1.00;;
1613;SDS011;800;48.824;9.346;2024-02-23T12:51:15;7.23;;;1.40;;
1613;SDS011;800;48.824;9.346;2024-02-23T12:53:41;3.43;;;1.10;;
1613;SDS011;800;48.824;9.346;2024-02-23T12:56:11;2.13;;;1.00;;
1613;SDS011;800;48.824;9.346;2024-02-23T12:58:39;2.70;;;1.10;;
1613;SDS011;800;48.824;9.346;2024-02-23T13:01:08;1.20;;;0.93;;
1613;SDS011;800;48.824;9.346;2024-02-23T13:03:35;6.53;;;1.40;;
1613;SDS011;800;48.824;9.346;2024-02-23T13:06:03;3.03;;;1.70;;
1613;SDS011;800;48.824;9.346;2024-02-23T13:08:29;2.70;;;1.00;;
1613;SDS011;800;48.824;9.346;2024-02-23T13:10:56;2.83;;;1.50;;
1613;SDS011;800;48.824;9.346;2024-02-23T13:13:22;4.93;;;1.27;;
1613;SDS011;800;48.824;9.346;2024-02-23T13:15:48;4.15;;;1.30;;
1613;SDS011;800;48.824;9.346;2024-02-23T13:18:15;2.10;;;1.00;;
1613;SDS011;800;48.824;9.346;2024-02-23T13:20:41;3.93;;;1.60;;
1613;SDS011;800;48.824;9.346;2024-02-23T13:23:07;2.63;;;1.40;;
1613;SDS011;800;48.824;9.346;2024-02-23T13:25:36;3.67;;;1.03;;
1613;SDS011;800;48.824;9.346;2024-02-23T13:28:03;4.20;;;1.10;;
1613;SDS011;800;48.824;9.346;2024-02-23T13:30:33;3.60;;;1.30;;
1613;SDS011;800;48.824;9.346;2024-02-23T13:32:59;5.53;;;1.63;;
1613;SDS011;800;48.824;9.346;2024-02-23T13:35:25;3.07;;;1.33;;
1613;SDS011;800;48.824;9.346;2024-02-23T13:37:51;3.00;;;1.43;;
1613;SDS011;800;48.824;9.346;2024-02-23T13:40:17;3.80;;;1.60;;
1613;SDS011;800;48.824;9.346;2024-02-23T13:42:43;7.13;;;2.03;;
1613;SDS011;800;48.824;9.346;2024-02-23T13:45:14;1.77;;;1.10;;
1613;SDS011;800;48.824;9.346;2024-02-23T13:47:40;5.03;;;1.93;;
1613;SDS011;800;48.824;9.346;2024-02-23T13:50:08;2.57;;;1.27;;
1613;SDS011;800;48.824;9.346;2024-02-23T13:52:34;2.77;;;1.30;;
1613;SDS011;800;48.824;9.346;2024-02-23T13:55:00;1.47;;;1.30;;
1613;SDS011;800;48.824;9.346;2024-02-23T13:57:25;4.40;;;1.53;;
1613;SDS011;800;48.824;9.346;2024-02-23T13:59:51;2.10;;;1.30;;
1613;SDS011;800;48.824;9.346;2024-02-23T14:02:23;8.67;;;4.03;;
1613;SDS011;800;48.824;9.346;2024-02-23T14:04:50;6.83;;;3.00;;
1613;SDS011;800;48.824;9.346;2024-02-23T14:07:16;5.60;;;2.50;;
1613;SDS011;800;48.824;9.346;2024-02-23T14:09:42;5.00;;;2.60;;
1613;SDS011;800;48.824;9.346;2024-02-23T14:12:08;4.10;;;1.93;;
1613;SDS011;800;48.824;9.346;2024-02-23T14:14:34;3.07;;;1.60;;
1613;SDS011;800;48.824;9.346;2024-02-23T14:16:59;3.40;;;2.30;;
1613;SDS011;800;48.824;9.346;2024-02-23T14:19:25;7.93;;;1.70;;
1613;SDS011;800;48.824;9.346;2024-02-23T14:21:50;5.00;;;1.40;;
1613;SDS011;800;48.824;9.346;2024-02-23T14:24:17;3.90;;;1.50;;
1613;SDS011;800;48.824;9.346;2024-02-23T14:26:42;1.40;;;1.13;;
1613;SDS011;800;48.824;9.346;2024-02-23T14:29:08;3.30;;;1.77;;
1613;SDS011;800;48.824;9.346;2024-02-23T14:31:33;5.30;;;2.07;;
1613;SDS011;800;48.824;9.346;2024-02-23T14:33:59;4.57;;;1.63;;
1613;SDS011;800;48.824;9.346;2024-02-23T14:36:24;5.63;;;1.03;;
1613;SDS011;800;48.824;9.346;2024-02-23T14:38:51;2.97;;;1.37;;
1613;SDS011;800;48.824;9.346;2024-02-23T14:41:17;2.50;;;1.53;;
1613;SDS011;800;48.824;9.346;2024-02-23T14:43:42;2.60;;;1.67;;
1613;SDS011;800;48.824;9.346;2024-02-23T14:46:08;3.40;;;1.80;;
1613;SDS011;800;48.824;9.346;2024-02-23T14:48:34;1.73;;;1.10;;
1613;SDS011;800;48.824;9.346;2024-02-23T14:51:00;4.00;;;1.33;;
1613;SDS011;800;48.824;9.346;2024-02-23T14:53:28;3.67;;;1.50;;
1613;SDS011;800;48.824;9.346;2024-02-23T14:55:54;7.53;;;1.37;;
1613;SDS011;800;48.824;9.346;2024-02-23T14:58:19;2.50;;;1.43;;
1613;SDS011;800;48.824;9.346;2024-02-23T15:00:45;10.90;;;2.10;;
1613;SDS011;800;48.824;9.346;2024-02-23T15:03:12;6.83;;;2.47;;
1613;SDS011;800;48.824;9.346;2024-02-23T15:05:37;2.97;;;1.70;;
1613;SDS011;800;48.824;9.346;2024-02-23T15:08:03;3.67;;;1.50;;
1613;SDS011;800;48.824;9.346;2024-02-23T15:10:29;2.70;;;1.57;;
1613;SDS011;800;48.824;9.346;2024-02-23T15:12:55;3.50;;;1.50;;
1613;SDS011;800;48.824;9.346;2024-02-23T15:15:20;6.20;;;1.60;;
1613;SDS011;800;48.824;9.346;2024-02-23T15:17:47;6.17;;;1.77;;
1613;SDS011;800;48.824;9.346;2024-02-23T15:20:14;3.30;;;1.50;;
1613;SDS011;800;48.824;9.346;2024-02-23T15:22:39;2.07;;;1.20;;
1613;SDS011;800;48.824;9.346;2024-02-23T15:25:07;3.93;;;1.40;;
1613;SDS011;800;48.824;9.346;2024-02-23T15:27:34;3.63;;;1.67;;